sensor_id;sensor_type;location;lat;lon;timestamp;temperature;humidity
18541;DHT22;9400;50.924;5.328;2023-07-22T06:31:16;15.80;99.90
18541;DHT22;9400;50.924;5.328;2023-07-22T06:33:45;15.70;99.90
18541;DHT22;9400;50.924;5.328;2023-07-22T06:36:13;15.70;99.90
18541;DHT22;9400;50.924;5.328;2023-07-22T06:38:42;15.90;99.90
18541;DHT22;9400;50.924;5.328;2023-07-22T06:41:10;16.00;99.90
18541;DHT22;9400;50.924;5.328;2023-07-22T06:43:38;16.10;99.90
18541;DHT22;9400;50.924;5.328;2023-07-22T06:46:06;16.20;99.90
18541;DHT22;9400;50.924;5.328;2023-07-22T06:48:34;16.20;99.90
18541;DHT22;9400;50.924;5.328;2023-07-22T06:51:02;16.20;99.90
18541;DHT22;9400;50.924;5.328;2023-07-22T06:53:30;16.30;99.90
18541;DHT22;9400;50.924;5.328;2023-07-22T06:55:57;16.30;99.90
18541;DHT22;9400;50.924;5.328;2023-07-22T06:58:25;16.50;99.90
18541;DHT22;9400;50.924;5.328;2023-07-22T07:00:54;16.60;99.90
18541;DHT22;9400;50.924;5.328;2023-07-22T07:03:22;16.70;99.90
18541;DHT22;9400;50.924;5.328;2023-07-22T07:05:55;16.70;99.90
18541;DHT22;9400;50.924;5.328;2023-07-22T07:08:23;16.90;99.90
18541;DHT22;9400;50.924;5.328;2023-07-22T07:10:51;17.00;99.90
18541;DHT22;9400;50.924;5.328;2023-07-22T07:13:19;17.10;99.90
18541;DHT22;9400;50.924;5.328;2023-07-22T07:15:48;17.20;99.90
18541;DHT22;9400;50.924;5.328;2023-07-22T07:18:16;17.20;99.90
18541;DHT22;9400;50.924;5.328;2023-07-22T07:20:44;17.30;99.90
18541;DHT22;9400;50.924;5.328;2023-07-22T07:23:13;17.10;99.90
18541;DHT22;9400;50.924;5.328;2023-07-22T07:25:42;17.20;99.90
18541;DHT22;9400;50.924;5.328;2023-07-22T07:28:10;17.30;99.90
18541;DHT22;9400;50.924;5.328;2023-07-22T07:30:40;17.50;99.90
18541;DHT22;9400;50.924;5.328;2023-07-22T07:33:07;17.60;99.90
18541;DHT22;9400;50.924;5.328;2023-07-22T07:35:34;17.60;99.90
18541;DHT22;9400;50.924;5.328;2023-07-22T07:38:02;17.90;99.90
18541;DHT22;9400;50.924;5.328;2023-07-22T07:40:32;17.90;99.90
18541;DHT22;9400;50.924;5.328;2023-07-22T07:42:59;17.90;99.90
18541;DHT22;9400;50.924;5.328;2023-07-22T07:45:26;17.70;99.90
18541;DHT22;9400;50.924;5.328;2023-07-22T07:47:54;17.80;99.90
18541;DHT22;9400;50.924;5.328;2023-07-22T07:50:21;18.00;99.90
18541;DHT22;9400;50.924;5.328;2023-07-22T07:52:49;18.00;99.90
18541;DHT22;9400;50.924;5.328;2023-07-22T07:55:16;18.00;99.90
18541;DHT22;9400;50.924;5.328;2023-07-22T07:57:45;17.80;99.90
18541;DHT22;9400;50.924;5.328;2023-07-22T08:00:13;18.00;99.90
18541;DHT22;9400;50.924;5.328;2023-07-22T08:02:42;18.10;99.90
18541;DHT22;9400;50.924;5.328;2023-07-22T08:05:10;18.10;99.90
18541;DHT22;9400;50.924;5.328;2023-07-22T08:07:38;18.00;99.90
18541;DHT22;9400;50.924;5.328;2023-07-22T08:10:06;18.10;99.90
18541;DHT22;9400;50.924;5.328;2023-07-22T08:12:35;18.20;99.90
18541;DHT22;9400;50.924;5.328;2023-07-22T08:15:05;18.30;99.90
18541;DHT22;9400;50.924;5.328;2023-07-22T08:17:34;18.40;99.90
18541;DHT22;9400;50.924;5.328;2023-07-22T08:20:02;18.30;99.90
18541;DHT22;9400;50.924;5.328;2023-07-22T08:22:31;18.50;99.90
18541;DHT22;9400;50.924;5.328;2023-07-22T08:24:59;18.50;99.90
18541;DHT22;9400;50.924;5.328;2023-07-22T08:27:26;18.70;99.90
18541;DHT22;9400;50.924;5.328;2023-07-22T08:29:55;18.70;99.90
18541;DHT22;9400;50.924;5.328;2023-07-22T08:32:23;18.70;99.90
18541;DHT22;9400;50.924;5.328;2023-07-22T08:34:51;18.80;99.90
18541;DHT22;9400;50.924;5.328;2023-07-22T08:37:19;19.00;99.90
18541;DHT22;9400;50.924;5.328;2023-07-22T08:39:47;19.40;99.90
18541;DHT22;9400;50.924;5.328;2023-07-22T08:42:18;19.40;99.90
18541;DHT22;9400;50.924;5.328;2023-07-22T08:44:48;19.40;99.90
18541;DHT22;9400;50.924;5.328;2023-07-22T08:47:20;19.20;99.90
18541;DHT22;9400;50.924;5.328;2023-07-22T08:49:52;19.10;99.90
18541;DHT22;9400;50.924;5.328;2023-07-22T08:52:22;19.00;99.90
18541;DHT22;9400;50.924;5.328;2023-07-22T08:54:50;18.90;99.90
18541;DHT22;9400;50.924;5.328;2023-07-22T08:57:18;18.90;99.90
18541;DHT22;9400;50.924;5.328;2023-07-22T08:59:47;19.00;99.90
18541;DHT22;9400;50.924;5.328;2023-07-22T09:02:15;18.90;99.90
18541;DHT22;9400;50.924;5.328;2023-07-22T09:04:45;19.10;99.90
18541;DHT22;9400;50.924;5.328;2023-07-22T09:07:15;19.30;99.90
18541;DHT22;9400;50.924;5.328;2023-07-22T09:09:45;19.60;99.90
18541;DHT22;9400;50.924;5.328;2023-07-22T09:12:14;19.80;99.90
18541;DHT22;9400;50.924;5.328;2023-07-22T09:14:43;20.00;99.90
18541;DHT22;9400;50.924;5.328;2023-07-22T09:17:11;20.30;99.90
18541;DHT22;9400;50.924;5.328;2023-07-22T09:19:38;20.30;99.90
18541;DHT22;9400;50.924;5.328;2023-07-22T09:22:08;20.50;99.90
18541;DHT22;9400;50.924;5.328;2023-07-22T09:24:37;20.20;99.90
18541;DHT22;9400;50.924;5.328;2023-07-22T09:27:05;20.20;99.90
18541;DHT22;9400;50.924;5.328;2023-07-22T09:29:34;20.30;99.90
18541;DHT22;9400;50.924;5.328;2023-07-22T09:32:03;20.20;99.90
18541;DHT22;9400;50.924;5.328;2023-07-22T09:34:30;20.20;99.90
18541;DHT22;9400;50.924;5.328;2023-07-22T09:36:59;20.10;99.90
18541;DHT22;9400;50.924;5.328;2023-07-22T09:39:27;20.00;99.90
18541;DHT22;9400;50.924;5.328;2023-07-22T09:41:56;20.00;99.90
18541;DHT22;9400;50.924;5.328;2023-07-22T09:44:29;20.20;99.90
18541;DHT22;9400;50.924;5.328;2023-07-22T09:46:57;20.00;99.90
18541;DHT22;9400;50.924;5.328;2023-07-22T09:49:25;20.30;99.90
18541;DHT22;9400;50.924;5.328;2023-07-22T09:51:54;20.50;99.90
18541;DHT22;9400;50.924;5.328;2023-07-22T09:54:21;20.60;99.90
18541;DHT22;9400;50.924;5.328;2023-07-22T09:56:50;21.00;99.90
18541;DHT22;9400;50.924;5.328;2023-07-22T09:59:19;21.20;99.90
18541;DHT22;9400;50.924;5.328;2023-07-22T10:01:50;21.10;99.90
18541;DHT22;9400;50.924;5.328;2023-07-22T10:04:18;21.20;99.90
18541;DHT22;9400;50.924;5.328;2023-07-22T10:06:47;21.10;99.90
18541;DHT22;9400;50.924;5.328;2023-07-22T10:09:16;21.10;99.90
18541;DHT22;9400;50.924;5.328;2023-07-22T10:11:46;21.40;99.90
18541;DHT22;9400;50.924;5.328;2023-07-22T10:14:14;21.30;99.90
18541;DHT22;9400;50.924;5.328;2023-07-22T10:16:43;21.40;99.90
18541;DHT22;9400;50.924;5.328;2023-07-22T10:19:11;21.40;99.90
18541;DHT22;9400;50.924;5.328;2023-07-22T10:21:40;21.60;99.90
18541;DHT22;9400;50.924;5.328;2023-07-22T10:24:08;21.60;99.90
18541;DHT22;9400;50.924;5.328;2023-07-22T10:26:37;21.50;99.90
18541;DHT22;9400;50.924;5.328;2023-07-22T10:29:07;21.50;99.90
18541;DHT22;9400;50.924;5.328;2023-07-22T10:31:36;21.80;99.90
18541;DHT22;9400;50.924;5.328;2023-07-22T10:34:05;21.90;99.90
18541;DHT22;9400;50.924;5.328;2023-07-22T10:36:34;21.40;99.90
18541;DHT22;9400;50.924;5.328;2023-07-22T10:39:03;21.60;99.90
18541;DHT22;9400;50.924;5.328;2023-07-22T10:41:32;22.00;99.90
18541;DHT22;9400;50.924;5.328;2023-07-22T10:43:59;22.10;99.90
18541;DHT22;9400;50.924;5.328;2023-07-22T10:46:34;22.10;99.90
18541;DHT22;9400;50.924;5.328;2023-07-22T10:49:14;22.20;99.90
18541;DHT22;9400;50.924;5.328;2023-07-22T10:51:45;22.10;99.90
18541;DHT22;9400;50.924;5.328;2023-07-22T10:54:15;22.30;99.90
18541;DHT22;9400;50.924;5.328;2023-07-22T10:56:57;22.40;99.90
18541;DHT22;9400;50.924;5.328;2023-07-22T10:59:32;22.60;99.90
18541;DHT22;9400;50.924;5.328;2023-07-22T11:02:01;22.90;99.90
18541;DHT22;9400;50.924;5.328;2023-07-22T11:04:36;22.80;99.90
18541;DHT22;9400;50.924;5.328;2023-07-22T11:07:05;22.40;99.90
18541;DHT22;9400;50.924;5.328;2023-07-22T11:09:40;22.20;99.90
18541;DHT22;9400;50.924;5.328;2023-07-22T11:12:14;22.70;99.90
18541;DHT22;9400;50.924;5.328;2023-07-22T11:14:49;22.80;99.90
18541;DHT22;9400;50.924;5.328;2023-07-22T11:17:18;22.40;99.90
18541;DHT22;9400;50.924;5.328;2023-07-22T11:20:00;22.50;99.90
18541;DHT22;9400;50.924;5.328;2023-07-22T11:22:28;23.00;99.90
18541;DHT22;9400;50.924;5.328;2023-07-22T11:24:56;23.00;99.90
18541;DHT22;9400;50.924;5.328;2023-07-22T11:27:24;23.00;99.90
18541;DHT22;9400;50.924;5.328;2023-07-22T11:29:52;23.10;99.90
18541;DHT22;9400;50.924;5.328;2023-07-22T11:32:21;23.40;99.90
18541;DHT22;9400;50.924;5.328;2023-07-22T11:34:51;23.20;99.90
18541;DHT22;9400;50.924;5.328;2023-07-22T11:37:21;23.50;99.90
18541;DHT22;9400;50.924;5.328;2023-07-22T11:39:48;23.50;99.90
18541;DHT22;9400;50.924;5.328;2023-07-22T11:42:16;23.60;99.90
18541;DHT22;9400;50.924;5.328;2023-07-22T11:44:45;23.40;99.90
18541;DHT22;9400;50.924;5.328;2023-07-22T11:47:12;23.90;99.90
18541;DHT22;9400;50.924;5.328;2023-07-22T11:49:40;23.60;99.90
18541;DHT22;9400;50.924;5.328;2023-07-22T11:52:10;23.50;99.90
18541;DHT22;9400;50.924;5.328;2023-07-22T11:54:41;23.50;99.90
18541;DHT22;9400;50.924;5.328;2023-07-22T11:57:10;23.50;99.90
18541;DHT22;9400;50.924;5.328;2023-07-22T11:59:38;23.60;99.90
18541;DHT22;9400;50.924;5.328;2023-07-22T12:02:06;23.60;99.90
18541;DHT22;9400;50.924;5.328;2023-07-22T12:04:34;23.70;99.90
18541;DHT22;9400;50.924;5.328;2023-07-22T12:07:02;24.50;99.90
18541;DHT22;9400;50.924;5.328;2023-07-22T12:09:31;24.50;99.90
18541;DHT22;9400;50.924;5.328;2023-07-22T12:12:00;24.90;99.90
18541;DHT22;9400;50.924;5.328;2023-07-22T12:14:35;24.80;99.90
18541;DHT22;9400;50.924;5.328;2023-07-22T12:17:06;24.70;99.90
18541;DHT22;9400;50.924;5.328;2023-07-22T12:19:35;24.70;99.90
18541;DHT22;9400;50.924;5.328;2023-07-22T12:22:03;24.50;99.90
18541;DHT22;9400;50.924;5.328;2023-07-22T12:24:30;24.40;99.90
18541;DHT22;9400;50.924;5.328;2023-07-22T12:26:59;24.70;99.90
18541;DHT22;9400;50.924;5.328;2023-07-22T12:29:27;24.90;99.90
18541;DHT22;9400;50.924;5.328;2023-07-22T12:31:54;24.50;99.90
18541;DHT22;9400;50.924;5.328;2023-07-22T12:34:22;24.40;99.90
18541;DHT22;9400;50.924;5.328;2023-07-22T12:36:49;23.90;99.90
18541;DHT22;9400;50.924;5.328;2023-07-22T12:39:17;23.40;99.90
18541;DHT22;9400;50.924;5.328;2023-07-22T12:41:44;24.00;99.90
18541;DHT22;9400;50.924;5.328;2023-07-22T12:44:13;25.00;99.90
18541;DHT22;9400;50.924;5.328;2023-07-22T12:46:41;25.10;99.90
18541;DHT22;9400;50.924;5.328;2023-07-22T12:49:11;25.60;99.90
18541;DHT22;9400;50.924;5.328;2023-07-22T12:51:39;25.80;99.90
18541;DHT22;9400;50.924;5.328;2023-07-22T12:54:07;26.00;99.90
18541;DHT22;9400;50.924;5.328;2023-07-22T12:56:35;26.00;99.90
18541;DHT22;9400;50.924;5.328;2023-07-22T12:59:03;25.90;99.90
18541;DHT22;9400;50.924;5.328;2023-07-22T13:01:32;25.40;99.90
18541;DHT22;9400;50.924;5.328;2023-07-22T13:04:00;25.70;99.90
18541;DHT22;9400;50.924;5.328;2023-07-22T13:06:30;25.60;99.90
18541;DHT22;9400;50.924;5.328;2023-07-22T13:08:57;25.10;99.90
18541;DHT22;9400;50.924;5.328;2023-07-22T13:11:25;24.90;99.90
18541;DHT22;9400;50.924;5.328;2023-07-22T13:13:53;24.90;99.90
18541;DHT22;9400;50.924;5.328;2023-07-22T13:16:21;25.30;99.90
18541;DHT22;9400;50.924;5.328;2023-07-22T13:18:51;25.20;99.90
18541;DHT22;9400;50.924;5.328;2023-07-22T13:21:18;24.40;99.90
18541;DHT22;9400;50.924;5.328;2023-07-22T13:23:45;24.10;99.90
18541;DHT22;9400;50.924;5.328;2023-07-22T13:26:15;23.90;99.90
18541;DHT22;9400;50.924;5.328;2023-07-22T13:28:42;23.80;99.90
18541;DHT22;9400;50.924;5.328;2023-07-22T13:31:10;24.00;99.90
18541;DHT22;9400;50.924;5.328;2023-07-22T13:33:37;24.60;99.90
18541;DHT22;9400;50.924;5.328;2023-07-22T13:36:07;25.90;99.90
18541;DHT22;9400;50.924;5.328;2023-07-22T13:38:35;26.50;99.90
18541;DHT22;9400;50.924;5.328;2023-07-22T13:41:02;25.60;99.90
18541;DHT22;9400;50.924;5.328;2023-07-22T13:43:30;25.80;99.90
18541;DHT22;9400;50.924;5.328;2023-07-22T13:45:57;26.60;99.90
18541;DHT22;9400;50.924;5.328;2023-07-22T13:48:24;27.00;99.90
18541;DHT22;9400;50.924;5.328;2023-07-22T13:50:52;26.40;99.90
18541;DHT22;9400;50.924;5.328;2023-07-22T13:53:21;26.00;99.90
18541;DHT22;9400;50.924;5.328;2023-07-22T13:55:48;26.70;99.90
18541;DHT22;9400;50.924;5.328;2023-07-22T13:58:15;27.30;99.90
18541;DHT22;9400;50.924;5.328;2023-07-22T14:00:43;26.10;99.90
18541;DHT22;9400;50.924;5.328;2023-07-22T14:03:10;25.10;99.90
18541;DHT22;9400;50.924;5.328;2023-07-22T14:05:38;25.20;99.90
18541;DHT22;9400;50.924;5.328;2023-07-22T14:08:05;25.00;99.90
18541;DHT22;9400;50.924;5.328;2023-07-22T14:10:34;24.70;99.90
18541;DHT22;9400;50.924;5.328;2023-07-22T14:13:02;25.30;99.90
18541;DHT22;9400;50.924;5.328;2023-07-22T14:15:29;25.30;99.90
18541;DHT22;9400;50.924;5.328;2023-07-22T14:17:57;26.40;99.90
18541;DHT22;9400;50.924;5.328;2023-07-22T14:20:25;26.90;99.90
18541;DHT22;9400;50.924;5.328;2023-07-22T14:22:52;26.40;99.90
18541;DHT22;9400;50.924;5.328;2023-07-22T14:25:20;25.90;99.90
18541;DHT22;9400;50.924;5.328;2023-07-22T14:27:50;25.70;99.90
18541;DHT22;9400;50.924;5.328;2023-07-22T14:30:17;24.80;99.90
18541;DHT22;9400;50.924;5.328;2023-07-22T14:32:45;24.70;99.90
18541;DHT22;9400;50.924;5.328;2023-07-22T14:35:12;25.30;99.90
18541;DHT22;9400;50.924;5.328;2023-07-22T14:37:40;26.20;99.90
18541;DHT22;9400;50.924;5.328;2023-07-22T14:40:08;25.90;99.90
18541;DHT22;9400;50.924;5.328;2023-07-22T14:42:36;26.10;99.90
18541;DHT22;9400;50.924;5.328;2023-07-22T14:45:06;26.20;99.90
18541;DHT22;9400;50.924;5.328;2023-07-22T14:47:34;25.80;99.90
18541;DHT22;9400;50.924;5.328;2023-07-22T14:50:02;25.80;99.90
18541;DHT22;9400;50.924;5.328;2023-07-22T14:52:30;25.30;99.90
18541;DHT22;9400;50.924;5.328;2023-07-22T14:54:58;25.90;99.90
18541;DHT22;9400;50.924;5.328;2023-07-22T14:57:25;26.90;99.90
18541;DHT22;9400;50.924;5.328;2023-07-22T14:59:55;26.50;99.90
18541;DHT22;9400;50.924;5.328;2023-07-22T15:02:24;26.20;99.90
18541;DHT22;9400;50.924;5.328;2023-07-22T15:04:53;26.20;99.90
18541;DHT22;9400;50.924;5.328;2023-07-22T15:07:21;26.00;99.90
18541;DHT22;9400;50.924;5.328;2023-07-22T15:09:51;25.90;99.90
18541;DHT22;9400;50.924;5.328;2023-07-22T15:12:19;25.90;99.90
18541;DHT22;9400;50.924;5.328;2023-07-22T15:14:46;25.50;99.90
18541;DHT22;9400;50.924;5.328;2023-07-22T15:17:13;25.00;99.90
18541;DHT22;9400;50.924;5.328;2023-07-22T15:19:43;24.40;99.90
18541;DHT22;9400;50.924;5.328;2023-07-22T15:22:10;23.90;99.90
18541;DHT22;9400;50.924;5.328;2023-07-22T15:24:38;23.90;99.90
18541;DHT22;9400;50.924;5.328;2023-07-22T15:27:06;24.20;99.90
18541;DHT22;9400;50.924;5.328;2023-07-22T15:29:34;24.10;99.90
18541;DHT22;9400;50.924;5.328;2023-07-22T15:32:01;23.90;99.90
18541;DHT22;9400;50.924;5.328;2023-07-22T15:34:31;24.10;99.90
18541;DHT22;9400;50.924;5.328;2023-07-22T15:37:01;23.90;99.90
18541;DHT22;9400;50.924;5.328;2023-07-22T15:39:28;24.20;99.90
18541;DHT22;9400;50.924;5.328;2023-07-22T15:41:56;24.30;99.90
18541;DHT22;9400;50.924;5.328;2023-07-22T15:44:24;24.50;99.90
18541;DHT22;9400;50.924;5.328;2023-07-22T15:46:53;25.10;99.90
18541;DHT22;9400;50.924;5.328;2023-07-22T15:49:21;25.30;99.90
18541;DHT22;9400;50.924;5.328;2023-07-22T15:51:48;25.10;99.90
18541;DHT22;9400;50.924;5.328;2023-07-22T15:54:25;24.60;99.90
18541;DHT22;9400;50.924;5.328;2023-07-22T15:56:52;24.50;99.90
18541;DHT22;9400;50.924;5.328;2023-07-22T15:59:19;24.20;99.90
18541;DHT22;9400;50.924;5.328;2023-07-22T16:01:47;24.40;99.90
18541;DHT22;9400;50.924;5.328;2023-07-22T16:04:14;24.60;99.90
18541;DHT22;9400;50.924;5.328;2023-07-22T16:06:42;24.40;99.90
18541;DHT22;9400;50.924;5.328;2023-07-22T16:09:10;24.40;99.90
18541;DHT22;9400;50.924;5.328;2023-07-22T16:11:39;24.20;99.90
18541;DHT22;9400;50.924;5.328;2023-07-22T16:14:06;23.80;99.90
18541;DHT22;9400;50.924;5.328;2023-07-22T16:16:35;23.60;99.90
18541;DHT22;9400;50.924;5.328;2023-07-22T16:19:04;23.30;99.90
18541;DHT22;9400;50.924;5.328;2023-07-22T16:21:31;23.30;99.90
18541;DHT22;9400;50.924;5.328;2023-07-22T16:23:59;23.30;99.90
18541;DHT22;9400;50.924;5.328;2023-07-22T16:26:26;23.20;99.90
18541;DHT22;9400;50.924;5.328;2023-07-22T16:28:55;23.20;99.90
18541;DHT22;9400;50.924;5.328;2023-07-22T16:31:22;23.00;99.90
18541;DHT22;9400;50.924;5.328;2023-07-22T16:33:50;23.10;99.90
18541;DHT22;9400;50.924;5.328;2023-07-22T16:36:18;23.10;99.90
18541;DHT22;9400;50.924;5.328;2023-07-22T16:38:46;23.00;99.90
18541;DHT22;9400;50.924;5.328;2023-07-22T16:41:13;23.20;99.90
18541;DHT22;9400;50.924;5.328;2023-07-22T16:43:41;23.10;99.90
18541;DHT22;9400;50.924;5.328;2023-07-22T16:46:10;23.00;99.90
18541;DHT22;9400;50.924;5.328;2023-07-22T16:48:38;23.00;99.90
18541;DHT22;9400;50.924;5.328;2023-07-22T16:51:05;22.90;99.90
18541;DHT22;9400;50.924;5.328;2023-07-22T16:53:33;22.80;99.90
18541;DHT22;9400;50.924;5.328;2023-07-22T16:56:01;22.80;99.90
18541;DHT22;9400;50.924;5.328;2023-07-22T16:58:29;22.80;99.90
18541;DHT22;9400;50.924;5.328;2023-07-22T17:00:57;22.60;99.90
18541;DHT22;9400;50.924;5.328;2023-07-22T17:03:26;22.70;99.90
18541;DHT22;9400;50.924;5.328;2023-07-22T17:05:54;22.70;99.90
18541;DHT22;9400;50.924;5.328;2023-07-22T17:08:22;22.70;99.90
18541;DHT22;9400;50.924;5.328;2023-07-22T17:10:50;22.50;99.90
18541;DHT22;9400;50.924;5.328;2023-07-22T17:13:18;22.50;99.90
18541;DHT22;9400;50.924;5.328;2023-07-22T17:15:46;22.60;99.90
18541;DHT22;9400;50.924;5.328;2023-07-22T17:18:14;22.80;99.90
18541;DHT22;9400;50.924;5.328;2023-07-22T17:20:43;22.80;99.90
18541;DHT22;9400;50.924;5.328;2023-07-22T17:23:11;22.90;99.90
18541;DHT22;9400;50.924;5.328;2023-07-22T17:25:39;22.70;99.90
18541;DHT22;9400;50.924;5.328;2023-07-22T17:28:07;22.70;99.90
18541;DHT22;9400;50.924;5.328;2023-07-22T17:30:35;22.80;99.90
18541;DHT22;9400;50.924;5.328;2023-07-22T17:33:02;22.90;99.90
18541;DHT22;9400;50.924;5.328;2023-07-22T17:35:33;23.20;99.90
18541;DHT22;9400;50.924;5.328;2023-07-22T17:38:03;23.40;99.90
18541;DHT22;9400;50.924;5.328;2023-07-22T17:40:34;23.40;99.90
18541;DHT22;9400;50.924;5.328;2023-07-22T17:43:02;23.20;99.90
18541;DHT22;9400;50.924;5.328;2023-07-22T17:45:29;23.10;99.90
18541;DHT22;9400;50.924;5.328;2023-07-22T17:47:57;23.00;99.90
18541;DHT22;9400;50.924;5.328;2023-07-22T17:50:24;22.80;99.90
18541;DHT22;9400;50.924;5.328;2023-07-22T17:52:52;22.60;99.90
18541;DHT22;9400;50.924;5.328;2023-07-22T17:55:21;22.50;99.90
18541;DHT22;9400;50.924;5.328;2023-07-22T17:57:50;22.40;99.90
18541;DHT22;9400;50.924;5.328;2023-07-22T18:00:17;22.50;99.90
18541;DHT22;9400;50.924;5.328;2023-07-22T18:02:45;22.50;99.90
18541;DHT22;9400;50.924;5.328;2023-07-22T18:05:13;22.50;99.90
18541;DHT22;9400;50.924;5.328;2023-07-22T18:07:41;22.50;99.90
18541;DHT22;9400;50.924;5.328;2023-07-22T18:10:08;22.50;99.90
18541;DHT22;9400;50.924;5.328;2023-07-22T18:12:38;22.60;99.90
18541;DHT22;9400;50.924;5.328;2023-07-22T18:15:06;22.50;99.90
18541;DHT22;9400;50.924;5.328;2023-07-22T18:17:35;22.40;99.90
18541;DHT22;9400;50.924;5.328;2023-07-22T18:20:03;22.40;99.90
18541;DHT22;9400;50.924;5.328;2023-07-22T18:22:32;22.40;99.90
18541;DHT22;9400;50.924;5.328;2023-07-22T18:25:01;22.50;99.90
18541;DHT22;9400;50.924;5.328;2023-07-22T18:27:29;22.40;99.90
18541;DHT22;9400;50.924;5.328;2023-07-22T18:29:58;22.40;99.90
18541;DHT22;9400;50.924;5.328;2023-07-22T18:32:26;22.50;99.90
18541;DHT22;9400;50.924;5.328;2023-07-22T18:34:59;22.40;99.90
18541;DHT22;9400;50.924;5.328;2023-07-22T18:37:27;22.30;99.90
18541;DHT22;9400;50.924;5.328;2023-07-22T18:39:55;22.20;99.90
18541;DHT22;9400;50.924;5.328;2023-07-22T18:42:27;22.20;99.90
18541;DHT22;9400;50.924;5.328;2023-07-22T18:44:56;22.20;99.90
18541;DHT22;9400;50.924;5.328;2023-07-22T18:47:25;22.00;99.90
18541;DHT22;9400;50.924;5.328;2023-07-22T18:49:52;22.00;99.90
18541;DHT22;9400;50.924;5.328;2023-07-22T18:52:21;22.00;99.90
18541;DHT22;9400;50.924;5.328;2023-07-22T18:54:49;22.00;99.90
18541;DHT22;9400;50.924;5.328;2023-07-22T18:57:17;22.20;99.90
18541;DHT22;9400;50.924;5.328;2023-07-22T18:59:44;22.20;99.90
18541;DHT22;9400;50.924;5.328;2023-07-22T19:02:13;22.30;99.90
18541;DHT22;9400;50.924;5.328;2023-07-22T19:04:42;22.10;99.90
18541;DHT22;9400;50.924;5.328;2023-07-22T19:07:10;22.20;99.90
18541;DHT22;9400;50.924;5.328;2023-07-22T19:09:38;22.10;99.90
18541;DHT22;9400;50.924;5.328;2023-07-22T19:12:06;22.10;99.90
18541;DHT22;9400;50.924;5.328;2023-07-22T19:14:34;21.90;99.90
18541;DHT22;9400;50.924;5.328;2023-07-22T19:17:03;21.80;99.90
18541;DHT22;9400;50.924;5.328;2023-07-22T19:19:31;22.00;99.90
18541;DHT22;9400;50.924;5.328;2023-07-22T19:22:00;22.00;99.90
18541;DHT22;9400;50.924;5.328;2023-07-22T19:24:33;22.10;99.90
18541;DHT22;9400;50.924;5.328;2023-07-22T19:27:01;22.10;99.90
18541;DHT22;9400;50.924;5.328;2023-07-22T19:29:29;22.10;99.90
18541;DHT22;9400;50.924;5.328;2023-07-22T19:31:57;22.00;99.90
18541;DHT22;9400;50.924;5.328;2023-07-22T19:34:24;22.10;99.90
18541;DHT22;9400;50.924;5.328;2023-07-22T19:36:53;22.10;99.90
18541;DHT22;9400;50.924;5.328;2023-07-22T19:39:23;22.10;99.90
18541;DHT22;9400;50.924;5.328;2023-07-22T19:41:50;21.90;99.90
18541;DHT22;9400;50.924;5.328;2023-07-22T19:44:18;21.80;99.90
18541;DHT22;9400;50.924;5.328;2023-07-22T19:46:49;21.70;99.90
18541;DHT22;9400;50.924;5.328;2023-07-22T19:49:17;21.70;99.90
18541;DHT22;9400;50.924;5.328;2023-07-22T19:51:44;21.60;99.90
18541;DHT22;9400;50.924;5.328;2023-07-22T19:54:12;21.70;99.90
18541;DHT22;9400;50.924;5.328;2023-07-22T19:56:40;21.70;99.90
18541;DHT22;9400;50.924;5.328;2023-07-22T19:59:08;21.60;99.90
18541;DHT22;9400;50.924;5.328;2023-07-22T20:01:36;21.60;99.90
18541;DHT22;9400;50.924;5.328;2023-07-22T20:04:05;21.60;99.90
18541;DHT22;9400;50.924;5.328;2023-07-22T20:06:33;21.60;99.90
18541;DHT22;9400;50.924;5.328;2023-07-22T20:09:00;21.60;99.90
18541;DHT22;9400;50.924;5.328;2023-07-22T20:11:28;21.50;99.90
18541;DHT22;9400;50.924;5.328;2023-07-22T20:13:56;21.30;99.90
18541;DHT22;9400;50.924;5.328;2023-07-22T20:16:30;21.20;99.90
18541;DHT22;9400;50.924;5.328;2023-07-22T20:18:58;21.20;99.90
18541;DHT22;9400;50.924;5.328;2023-07-22T20:21:26;21.10;99.90
18541;DHT22;9400;50.924;5.328;2023-07-22T20:23:53;21.10;99.90
18541;DHT22;9400;50.924;5.328;2023-07-22T20:26:21;21.10;99.90
18541;DHT22;9400;50.924;5.328;2023-07-22T20:28:49;21.00;99.90
18541;DHT22;9400;50.924;5.328;2023-07-22T20:31:20;21.00;99.90
18541;DHT22;9400;50.924;5.328;2023-07-22T20:33:47;20.90;99.90
18541;DHT22;9400;50.924;5.328;2023-07-22T20:36:15;20.80;99.90
18541;DHT22;9400;50.924;5.328;2023-07-22T20:38:45;20.80;99.90
18541;DHT22;9400;50.924;5.328;2023-07-22T20:41:12;20.80;99.90
18541;DHT22;9400;50.924;5.328;2023-07-22T20:43:43;20.60;99.90
18541;DHT22;9400;50.924;5.328;2023-07-22T20:46:10;20.60;99.90
18541;DHT22;9400;50.924;5.328;2023-07-22T20:48:41;20.60;99.90
18541;DHT22;9400;50.924;5.328;2023-07-22T20:51:08;20.50;99.90
18541;DHT22;9400;50.924;5.328;2023-07-22T20:53:35;20.60;99.90
18541;DHT22;9400;50.924;5.328;2023-07-22T20:56:03;20.50;99.90
18541;DHT22;9400;50.924;5.328;2023-07-22T20:58:31;20.50;99.90
18541;DHT22;9400;50.924;5.328;2023-07-22T21:01:02;20.50;99.90
18541;DHT22;9400;50.924;5.328;2023-07-22T21:03:29;20.40;99.90
18541;DHT22;9400;50.924;5.328;2023-07-22T21:05:58;20.30;99.90
18541;DHT22;9400;50.924;5.328;2023-07-22T21:08:26;20.40;99.90
18541;DHT22;9400;50.924;5.328;2023-07-22T21:10:55;20.40;99.90
18541;DHT22;9400;50.924;5.328;2023-07-22T21:13:23;20.30;99.90
18541;DHT22;9400;50.924;5.328;2023-07-22T21:15:51;20.30;99.90
18541;DHT22;9400;50.924;5.328;2023-07-22T21:18:18;20.30;99.90
18541;DHT22;9400;50.924;5.328;2023-07-22T21:20:48;20.40;99.90
18541;DHT22;9400;50.924;5.328;2023-07-22T21:23:17;20.50;99.90
18541;DHT22;9400;50.924;5.328;2023-07-22T21:25:44;20.40;99.90
18541;DHT22;9400;50.924;5.328;2023-07-22T21:28:12;20.40;99.90
18541;DHT22;9400;50.924;5.328;2023-07-22T21:30:39;20.30;99.90
18541;DHT22;9400;50.924;5.328;2023-07-22T21:33:07;20.20;99.90
18541;DHT22;9400;50.924;5.328;2023-07-22T21:35:35;20.30;99.90
18541;DHT22;9400;50.924;5.328;2023-07-22T21:38:03;20.30;99.90
18541;DHT22;9400;50.924;5.328;2023-07-22T21:40:32;20.20;99.90
18541;DHT22;9400;50.924;5.328;2023-07-22T21:43:00;20.30;99.90
18541;DHT22;9400;50.924;5.328;2023-07-22T21:45:28;20.30;99.90
18541;DHT22;9400;50.924;5.328;2023-07-22T21:47:56;20.20;99.90
18541;DHT22;9400;50.924;5.328;2023-07-22T21:50:24;20.30;99.90
18541;DHT22;9400;50.924;5.328;2023-07-22T21:52:51;20.30;99.90
18541;DHT22;9400;50.924;5.328;2023-07-22T21:55:22;20.40;99.90
18541;DHT22;9400;50.924;5.328;2023-07-22T21:57:51;20.50;99.90
18541;DHT22;9400;50.924;5.328;2023-07-22T22:00:19;20.50;99.90
18541;DHT22;9400;50.924;5.328;2023-07-22T22:02:46;20.40;99.90
18541;DHT22;9400;50.924;5.328;2023-07-22T22:05:18;20.20;99.90
18541;DHT22;9400;50.924;5.328;2023-07-22T22:07:46;19.80;99.90
18541;DHT22;9400;50.924;5.328;2023-07-22T22:10:14;19.60;99.90
18541;DHT22;9400;50.924;5.328;2023-07-22T22:12:41;19.50;99.90
18541;DHT22;9400;50.924;5.328;2023-07-22T22:15:10;19.50;99.90
18541;DHT22;9400;50.924;5.328;2023-07-22T22:17:38;19.60;99.90
18541;DHT22;9400;50.924;5.328;2023-07-22T22:20:07;19.50;99.90
18541;DHT22;9400;50.924;5.328;2023-07-22T22:22:35;19.60;99.90